createdAt,value
2023-05-05T00:02:54.923Z,57.45
2023-05-05T00:06:16.545Z,58.08
2023-05-05T00:09:38.157Z,58.35
2023-05-05T00:12:59.775Z,58.58
2023-05-05T00:16:23.324Z,58.51
2023-05-05T00:19:44.926Z,60.07
2023-05-05T00:23:06.915Z,60.08
2023-05-05T00:26:28.750Z,59.90
2023-05-05T00:29:50.529Z,60.15
2023-05-05T00:33:12.328Z,59.79
2023-05-05T00:36:34.407Z,59.41
2023-05-05T00:40:00.771Z,59.42
2023-05-05T00:43:22.435Z,60.88
2023-05-05T00:46:44.263Z,60.78
2023-05-05T00:50:10.913Z,61.32
2023-05-05T00:53:32.941Z,62.42
2023-05-05T00:56:56.840Z,62.92
2023-05-05T01:00:20.701Z,63.62
2023-05-05T01:03:42.432Z,64.42
2023-05-05T01:07:09.917Z,64.10
2023-05-05T01:10:40.597Z,65.21
2023-05-05T01:14:25.199Z,66.05
2023-05-05T01:17:56.045Z,65.75
2023-05-05T01:21:31.320Z,65.20
2023-05-05T01:25:17.952Z,65.88
2023-05-05T01:29:09.375Z,66.41
2023-05-05T01:32:36.260Z,66.43
2023-05-05T01:36:05.933Z,66.17
2023-05-05T01:39:33.500Z,66.90
2023-05-05T01:42:59.449Z,66.31
2023-05-05T01:46:23.692Z,66.14
2023-05-05T01:49:47.306Z,67.58
2023-05-05T01:53:12.783Z,68.22
2023-05-05T01:56:39.148Z,67.82
2023-05-05T02:00:04.256Z,67.77
2023-05-05T02:03:29.002Z,68.78
2023-05-05T02:06:53.312Z,69.08
2023-05-05T02:10:15.695Z,69.97
2023-05-05T02:13:42.201Z,70.47
2023-05-05T02:17:07.563Z,69.88
2023-05-05T02:20:32.394Z,70.12
2023-05-05T02:23:54.111Z,70.78
2023-05-05T02:27:18.816Z,70.98
2023-05-05T02:30:42.104Z,70.92
2023-05-05T02:34:07.331Z,68.75
2023-05-05T02:37:31.035Z,70.22
2023-05-05T02:40:55.862Z,70.79
2023-05-05T02:44:19.881Z,69.64
2023-05-05T02:47:46.852Z,68.78
2023-05-05T02:51:12.988Z,68.67
2023-05-05T02:54:34.688Z,69.93
2023-05-05T02:57:59.155Z,69.41
2023-05-05T03:01:32.250Z,70.18
2023-05-05T03:05:00.913Z,70.72
2023-05-05T03:08:42.041Z,71.37
2023-05-05T03:12:10.136Z,71.13
2023-05-05T03:15:41.828Z,71.29
2023-05-05T03:19:05.390Z,71.34
2023-05-05T03:22:35.789Z,70.32
2023-05-05T03:26:04.963Z,70.68
2023-05-05T03:29:30.189Z,69.89
2023-05-05T03:32:51.868Z,71.10
2023-05-05T03:36:13.547Z,71.28
2023-05-05T03:39:37.219Z,71.43
2023-05-05T03:42:58.807Z,72.37
2023-05-05T03:46:20.539Z,70.91
2023-05-05T03:49:42.535Z,70.82
2023-05-05T03:53:04.090Z,70.70
2023-05-05T03:56:25.777Z,70.94
2023-05-05T03:59:49.571Z,70.85
2023-05-05T04:03:11.687Z,70.78
2023-05-05T04:06:35.707Z,71.77
2023-05-05T04:09:57.313Z,72.93
2023-05-05T04:13:18.974Z,73.35
2023-05-05T04:16:42.844Z,73.12
2023-05-05T04:20:04.757Z,72.68
2023-05-05T04:23:29.017Z,73.13
2023-05-05T04:26:53.372Z,72.22
2023-05-05T04:30:17.233Z,71.90
2023-05-05T04:33:41.783Z,70.89
2023-05-05T04:37:08.203Z,70.15
2023-05-05T04:40:29.807Z,71.04
2023-05-05T04:43:51.428Z,70.74
2023-05-05T04:47:17.686Z,70.59
2023-05-05T04:50:41.672Z,70.70
2023-05-05T04:54:04.142Z,70.44
2023-05-05T04:57:26.094Z,70.60
2023-05-05T05:00:47.675Z,70.05
2023-05-05T05:04:10.641Z,69.19
2023-05-05T05:07:32.243Z,68.28
2023-05-05T05:10:53.917Z,68.56
2023-05-05T05:14:15.545Z,68.59
2023-05-05T05:17:39.862Z,67.15
2023-05-05T05:21:06.298Z,67.48
2023-05-05T05:24:30.210Z,66.32
2023-05-05T05:28:05.748Z,65.53
2023-05-05T05:31:31.258Z,64.31
2023-05-05T05:34:52.821Z,63.59
2023-05-05T05:38:14.576Z,62.82
2023-05-05T05:41:38.365Z,63.31
2023-05-05T05:44:59.936Z,63.09
2023-05-05T05:48:24.813Z,62.33
2023-05-05T05:51:48.974Z,61.97
2023-05-05T05:55:13.272Z,60.79
2023-05-05T05:58:35.680Z,60.26
2023-05-05T06:01:57.343Z,59.12
2023-05-05T06:05:18.966Z,55.81
2023-05-05T06:08:40.642Z,53.97
2023-05-05T06:12:04.958Z,55.99
2023-05-05T06:15:29.027Z,55.38
2023-05-05T06:18:50.665Z,55.93
2023-05-05T06:22:12.246Z,54.38
2023-05-05T06:25:36.431Z,54.82
2023-05-05T06:29:00.220Z,54.20
2023-05-05T06:32:21.878Z,53.74
2023-05-05T06:35:43.508Z,55.28
2023-05-05T06:39:05.112Z,54.26
2023-05-05T06:42:26.693Z,52.96
2023-05-05T06:45:48.645Z,52.92
2023-05-05T06:49:10.306Z,51.42
2023-05-05T06:52:32.138Z,51.48
2023-05-05T06:55:55.999Z,52.19
2023-05-05T06:59:19.883Z,51.49
2023-05-05T07:02:44.192Z,51.52
2023-05-05T07:06:06.052Z,51.97
2023-05-05T07:09:27.640Z,51.93
2023-05-05T07:12:49.773Z,52.28
2023-05-05T07:16:13.893Z,51.41
2023-05-05T07:19:37.846Z,51.38
2023-05-05T07:22:59.412Z,52.03
2023-05-05T07:26:21.056Z,51.33
2023-05-05T07:29:42.765Z,50.99
2023-05-05T07:33:04.400Z,49.68
2023-05-05T07:36:32.250Z,48.22
2023-05-05T07:39:56.196Z,47.77
2023-05-05T07:43:20.024Z,47.53
2023-05-05T07:46:41.807Z,47.27
2023-05-05T07:50:06.739Z,47.04
2023-05-05T07:53:29.478Z,46.89
2023-05-05T07:56:54.069Z,47.76
2023-05-05T08:00:19.539Z,48.20
2023-05-05T08:03:41.522Z,46.82
2023-05-05T08:07:03.357Z,47.53
2023-05-05T08:10:27.442Z,46.46
2023-05-05T08:13:51.417Z,48.08
2023-05-05T08:17:17.553Z,50.06
2023-05-05T08:20:39.189Z,50.09
2023-05-05T08:24:03.115Z,49.46
2023-05-05T08:27:27.446Z,49.02
2023-05-05T08:30:49.749Z,46.86
2023-05-05T08:34:11.346Z,47.18
2023-05-05T08:37:33.201Z,49.04
2023-05-05T08:40:59.582Z,49.30
2023-05-05T08:44:23.223Z,48.13
2023-05-05T08:47:45.136Z,46.71
2023-05-05T08:51:08.635Z,47.36
2023-05-05T08:54:33.676Z,47.60
2023-05-05T08:58:01.174Z,48.94
2023-05-05T09:01:25.240Z,46.48
2023-05-05T09:04:46.871Z,46.36
2023-05-05T09:08:09.706Z,45.58
2023-05-05T09:11:36.178Z,46.37
2023-05-05T09:14:59.400Z,47.14
2023-05-05T09:18:23.908Z,46.24
2023-05-05T09:21:51.296Z,44.11
2023-05-05T09:25:15.254Z,43.17
2023-05-05T09:28:37.491Z,44.25
2023-05-05T09:32:08.543Z,42.96
2023-05-05T09:35:52.772Z,46.05
2023-05-05T09:39:21.318Z,45.15
2023-05-05T09:42:44.759Z,45.97
2023-05-05T09:46:08.049Z,45.03
2023-05-05T09:49:30.742Z,44.82
2023-05-05T09:53:02.503Z,44.26
2023-05-05T09:56:40.667Z,44.54
2023-05-05T10:00:06.306Z,43.75
2023-05-05T10:03:28.140Z,44.80
2023-05-05T10:06:51.935Z,43.23
2023-05-05T10:10:18.339Z,43.49
2023-05-05T10:13:45.309Z,41.54
2023-05-05T10:17:12.011Z,41.64
2023-05-05T10:20:36.277Z,41.63
2023-05-05T10:24:06.966Z,40.98
2023-05-05T10:27:29.356Z,40.26
2023-05-05T10:30:54.468Z,38.56
2023-05-05T10:34:30.755Z,40.69
2023-05-05T10:37:55.138Z,40.69
2023-05-05T10:41:21.301Z,40.82
2023-05-05T10:44:45.479Z,40.11
2023-05-05T10:48:12.820Z,40.40
2023-05-05T10:51:41.316Z,40.21
2023-05-05T10:55:30.065Z,39.73
2023-05-05T10:59:00.030Z,39.50
2023-05-05T11:02:24.460Z,41.60
2023-05-05T11:06:04.262Z,41.41
2023-05-05T11:09:32.175Z,42.60
2023-05-05T11:13:03.012Z,41.54
2023-05-05T11:16:46.040Z,40.54
2023-05-05T11:20:10.715Z,41.07
2023-05-05T11:23:32.339Z,42.43
2023-05-05T11:26:56.198Z,40.80
2023-05-05T11:30:18.687Z,41.74
2023-05-05T11:33:40.562Z,42.21
2023-05-05T11:37:05.702Z,42.41
2023-05-05T11:40:32.493Z,41.04
2023-05-05T11:44:19.760Z,40.49
2023-05-05T11:47:43.532Z,41.87
2023-05-05T11:51:05.803Z,40.41
2023-05-05T11:54:28.176Z,39.68
2023-05-05T11:57:50.078Z,40.61
2023-05-05T12:01:13.366Z,42.68
2023-05-05T12:04:39.744Z,41.16
2023-05-05T12:08:01.485Z,42.96
2023-05-05T12:11:23.255Z,42.53
2023-05-05T12:14:53.418Z,43.49
2023-05-05T12:18:23.712Z,44.54
2023-05-05T12:21:45.753Z,44.49
2023-05-05T12:25:13.020Z,44.96
2023-05-05T12:28:48.510Z,42.52
2023-05-05T12:32:22.427Z,43.65
2023-05-05T12:35:46.809Z,43.26
2023-05-05T12:39:08.470Z,41.27
2023-05-05T12:42:30.119Z,41.19
2023-05-05T12:46:06.738Z,41.04
2023-05-05T12:49:28.490Z,41.65
2023-05-05T12:52:50.304Z,41.39
2023-05-05T12:56:30.614Z,43.47
2023-05-05T12:59:55.540Z,41.95
2023-05-05T13:03:21.152Z,42.07
2023-05-05T13:06:48.239Z,42.75
2023-05-05T13:10:13.193Z,41.40
2023-05-05T13:13:35.994Z,41.13
2023-05-05T13:16:57.709Z,42.34
2023-05-05T13:20:22.246Z,40.75
2023-05-05T13:23:44.978Z,40.63
2023-05-05T13:27:09.231Z,42.03
2023-05-05T13:30:30.843Z,41.49
2023-05-05T13:33:54.714Z,42.04
2023-05-05T13:37:18.746Z,41.29
2023-05-05T13:40:43.069Z,40.95
2023-05-05T13:44:04.750Z,41.85
2023-05-05T13:47:28.393Z,42.20
2023-05-05T13:50:52.241Z,42.04
2023-05-05T13:54:16.747Z,40.16
2023-05-05T13:57:38.398Z,39.09
2023-05-05T14:01:03.201Z,38.81
2023-05-05T14:04:25.276Z,40.28
2023-05-05T14:07:49.468Z,40.40
2023-05-05T14:11:14.090Z,38.68
2023-05-05T14:14:36.097Z,38.34
2023-05-05T14:17:57.955Z,38.24
2023-05-05T14:21:19.634Z,40.02
2023-05-05T14:24:46.487Z,38.03
2023-05-05T14:28:08.124Z,39.86
2023-05-05T14:31:34.667Z,38.53
2023-05-05T14:34:56.397Z,38.71
2023-05-05T14:38:18.149Z,38.71
2023-05-05T14:41:40.255Z,41.22
2023-05-05T14:45:03.642Z,38.83
2023-05-05T14:48:25.295Z,39.56
2023-05-05T14:51:49.052Z,39.34
2023-05-05T14:55:10.784Z,40.60
2023-05-05T14:58:32.792Z,40.21
2023-05-05T15:01:54.744Z,39.19
2023-05-05T15:05:16.788Z,40.33
2023-05-05T15:08:39.193Z,39.34
2023-05-05T15:12:03.399Z,40.24
2023-05-05T15:15:24.933Z,40.54
2023-05-05T15:18:46.694Z,40.83
2023-05-05T15:22:11.032Z,41.70
2023-05-05T15:25:34.885Z,42.48
2023-05-05T15:28:56.477Z,42.26
2023-05-05T15:32:20.348Z,43.68
2023-05-05T15:35:41.936Z,41.32
2023-05-05T15:39:06.185Z,42.63
2023-05-05T15:42:27.799Z,42.23
2023-05-05T15:45:49.552Z,42.63
2023-05-05T15:49:11.251Z,41.59
2023-05-05T15:52:37.670Z,42.30
2023-05-05T15:56:01.468Z,42.14
2023-05-05T15:59:23.052Z,43.39
2023-05-05T16:02:45.171Z,42.53
2023-05-05T16:06:07.469Z,42.63
2023-05-05T16:09:31.607Z,42.47
2023-05-05T16:12:53.290Z,42.46
2023-05-05T16:16:14.959Z,42.90
2023-05-05T16:19:36.577Z,43.34
2023-05-05T16:23:00.662Z,41.67
2023-05-05T16:26:22.300Z,41.80
2023-05-05T16:29:43.903Z,42.28
2023-05-05T16:33:06.884Z,42.33
2023-05-05T16:36:29.042Z,42.94
2023-05-05T16:39:50.747Z,41.83
2023-05-05T16:43:12.388Z,42.54
2023-05-05T16:46:37.462Z,42.27
2023-05-05T16:50:17.956Z,43.12
2023-05-05T16:53:40.110Z,42.81
2023-05-05T16:57:04.039Z,42.22
2023-05-05T17:00:25.780Z,43.25
2023-05-05T17:03:49.548Z,43.67
2023-05-05T17:07:11.447Z,43.51
2023-05-05T17:10:33.182Z,44.03
2023-05-05T17:13:54.774Z,44.09
2023-05-05T17:17:16.425Z,43.56
2023-05-05T17:20:38.106Z,44.36
2023-05-05T17:23:59.704Z,45.01
2023-05-05T17:27:21.331Z,45.26
2023-05-05T17:30:45.008Z,44.91
2023-05-05T17:34:09.338Z,44.34
2023-05-05T17:37:34.055Z,44.94
2023-05-05T17:40:55.750Z,45.32
2023-05-05T17:44:19.678Z,45.82
2023-05-05T17:47:43.870Z,45.88
2023-05-05T17:51:05.616Z,45.47
2023-05-05T17:54:27.446Z,46.05
2023-05-05T17:57:51.626Z,46.60
2023-05-05T18:01:25.994Z,48.98
2023-05-05T18:04:47.750Z,49.96
2023-05-05T18:08:12.183Z,51.10
2023-05-05T18:11:36.033Z,51.12
2023-05-05T18:15:00.555Z,51.89
2023-05-05T18:18:27.006Z,52.84
2023-05-05T18:21:52.499Z,53.68
2023-05-05T18:25:19.090Z,54.12
2023-05-05T18:28:40.706Z,54.49
2023-05-05T18:32:02.567Z,55.20
2023-05-05T18:35:26.410Z,55.37
2023-05-05T18:38:48.019Z,56.04
2023-05-05T18:42:09.629Z,56.44
2023-05-05T18:45:33.916Z,57.03
2023-05-05T18:48:55.688Z,58.02
2023-05-05T18:52:19.573Z,57.35
2023-05-05T18:55:42.981Z,57.06
2023-05-05T18:59:04.905Z,57.69
2023-05-05T19:02:26.680Z,57.79
2023-05-05T19:05:48.296Z,58.64
2023-05-05T19:09:10.933Z,59.75
2023-05-05T19:12:37.319Z,60.01
2023-05-05T19:15:59.182Z,59.60
2023-05-05T19:19:20.744Z,60.06
2023-05-05T19:22:45.780Z,60.57
2023-05-05T19:26:07.380Z,60.18
2023-05-05T19:29:32.144Z,61.65
2023-05-05T19:32:53.801Z,62.52
2023-05-05T19:36:15.541Z,62.04
2023-05-05T19:39:39.517Z,61.42
2023-05-05T19:43:01.186Z,62.73
2023-05-05T19:46:26.440Z,63.42
2023-05-05T19:49:48.083Z,62.48
2023-05-05T19:53:12.012Z,62.71
2023-05-05T19:56:33.608Z,62.67
2023-05-05T19:59:55.215Z,62.29
2023-05-05T20:03:19.204Z,62.28
2023-05-05T20:06:43.065Z,62.70
2023-05-05T20:10:08.304Z,62.77
2023-05-05T20:13:34.567Z,63.11
2023-05-05T20:17:01.035Z,63.56
2023-05-05T20:20:25.445Z,63.53
2023-05-05T20:23:47.452Z,63.59
2023-05-05T20:27:11.199Z,64.52
2023-05-05T20:30:32.815Z,65.03
2023-05-05T20:33:56.767Z,64.88
2023-05-05T20:37:21.905Z,64.71
2023-05-05T20:40:43.549Z,65.24
2023-05-05T20:44:05.285Z,65.93
2023-05-05T20:47:27.014Z,66.52
2023-05-05T20:50:48.711Z,66.26
2023-05-05T20:54:10.301Z,65.61
2023-05-05T20:57:32.013Z,65.61
2023-05-05T21:00:56.465Z,65.98
2023-05-05T21:04:20.827Z,66.06
2023-05-05T21:07:44.908Z,66.52
2023-05-05T21:11:10.284Z,66.30
2023-05-05T21:14:31.979Z,66.22
2023-05-05T21:17:53.713Z,65.91
2023-05-05T21:21:15.457Z,66.40
2023-05-05T21:24:39.085Z,67.32
2023-05-05T21:28:00.661Z,68.17
2023-05-05T21:31:24.358Z,67.94
2023-05-05T21:34:45.988Z,67.33
2023-05-05T21:38:08.306Z,67.27
2023-05-05T21:41:29.926Z,68.21
2023-05-05T21:44:51.595Z,68.62
2023-05-05T21:48:13.170Z,67.21
2023-05-05T21:51:34.976Z,68.57
2023-05-05T21:54:56.581Z,68.56
2023-05-05T21:58:23.006Z,69.61
2023-05-05T22:01:49.199Z,69.80
2023-05-05T22:05:10.965Z,69.39
2023-05-05T22:08:36.246Z,69.70
2023-05-05T22:11:57.906Z,69.87
2023-05-05T22:15:25.335Z,70.13
2023-05-05T22:18:49.411Z,70.49
2023-05-05T22:22:13.572Z,69.85
2023-05-05T22:25:35.676Z,69.81
2023-05-05T22:28:57.370Z,69.30
2023-05-05T22:32:23.783Z,69.68
2023-05-05T22:35:45.438Z,70.21
2023-05-05T22:39:09.438Z,69.95
2023-05-05T22:42:33.745Z,70.58
2023-05-05T22:45:55.432Z,69.89
2023-05-05T22:49:17.111Z,68.64
2023-05-05T22:52:38.760Z,69.69
2023-05-05T22:56:00.441Z,70.79
2023-05-05T22:59:22.457Z,70.55
2023-05-05T23:02:48.718Z,71.25
2023-05-05T23:06:10.398Z,71.11
2023-05-05T23:09:31.990Z,70.20
2023-05-05T23:12:58.512Z,70.90
2023-05-05T23:16:20.421Z,71.29
2023-05-05T23:19:44.454Z,70.97
2023-05-05T23:23:06.079Z,71.48
2023-05-05T23:26:30.278Z,70.98
2023-05-05T23:29:51.908Z,70.79
2023-05-05T23:33:13.624Z,70.32
2023-05-05T23:36:37.380Z,70.57
2023-05-05T23:39:58.967Z,71.98
2023-05-05T23:43:20.523Z,71.30
2023-05-05T23:46:42.261Z,72.29
2023-05-05T23:50:09.056Z,72.77
2023-05-05T23:53:32.992Z,72.98
2023-05-05T23:56:56.954Z,73.04
